Time;durP1;ratioP1;P1;durP2;ratioP2;P2;SDS_P1;SDS_P2;PMS_P1;PMS_P2;Temp;Humidity;BMP_temperature;BMP_pressure;BME280_temperature;BME280_humidity;BME280_pressure;Samples;Min_cycle;Max_cycle;Signal;HPM_P1;HPM_P2
2022/04/04 00:01:45;;;;;;;19.77;9.67;;;-0.70;99.90;;;;;;5071010;28;20234;-83
2022/04/04 00:04:11;;;;;;;15.77;9.50;;;-0.60;99.90;;;;;;5054294;28;20185;-83
2022/04/04 00:06:37;;;;;;;19.07;9.40;;;-0.60;99.90;;;;;;5072322;28;20509;-82
2022/04/04 00:09:03;;;;;;;16.77;10.63;;;-0.60;99.90;;;;;;5072413;28;20187;-80
2022/04/04 00:11:29;;;;;;;18.40;9.00;;;0.60;99.90;;;;;;5071538;28;20194;-81
2022/04/04 00:13:55;;;;;;;29.03;12.57;;;-0.60;99.90;;;;;;5073580;28;20188;-81
2022/04/04 00:16:21;;;;;;;25.93;12.43;;;0.30;99.90;;;;;;5075201;28;20179;-83
2022/04/04 00:18:46;;;;;;;15.70;7.73;;;-0.10;99.90;;;;;;5074967;28;20187;-83
2022/04/04 00:21:12;;;;;;;20.17;11.50;;;-0.50;99.90;;;;;;5074791;28;20218;-83
2022/04/04 00:23:38;;;;;;;18.60;9.77;;;0.10;99.90;;;;;;5074914;28;20186;-83
2022/04/04 00:26:05;;;;;;;18.07;9.20;;;0.40;99.90;;;;;;5076003;28;20178;-83
2022/04/04 00:28:31;;;;;;;17.93;10.37;;;;;;;;;;5058458;28;20539;-83
2022/04/04 00:30:57;;;;;;;17.33;8.33;;;-0.40;99.90;;;;;;5075944;28;20652;-83
2022/04/04 00:33:22;;;;;;;20.00;10.87;;;0.40;99.90;;;;;;5074972;28;20266;-83
2022/04/04 00:35:48;;;;;;;17.30;8.97;;;-0.50;99.90;;;;;;5074912;28;20179;-83
2022/04/04 00:38:14;;;;;;;22.37;9.50;;;0.70;99.90;;;;;;5074753;28;20821;-81
2022/04/04 00:40:43;;;;;;;15.90;9.57;;;-0.40;99.90;;;;;;5074770;28;20253;-81
2022/04/04 00:43:09;;;;;;;13.40;8.83;;;-0.40;99.90;;;;;;5075796;28;20168;-81
2022/04/04 00:45:34;;;;;;;17.73;9.27;;;1.40;99.90;;;;;;5074503;28;20607;-81
2022/04/04 00:48:00;;;;;;;24.07;11.97;;;0.70;99.90;;;;;;5057559;28;20273;-81
2022/04/04 00:50:26;;;;;;;18.60;9.23;;;;;;;;;;5076068;28;20171;-81
2022/04/04 00:52:52;;;;;;;22.43;11.90;;;-0.40;99.90;;;;;;5078264;28;20214;-81
2022/04/04 00:55:19;;;;;;;19.23;8.63;;;-0.10;99.90;;;;;;5078470;28;20560;-82
2022/04/04 00:57:45;;;;;;;19.10;8.50;;;0.50;99.90;;;;;;5073823;28;20239;-81
2022/04/04 01:00:12;;;;;;;21.10;8.93;;;-0.50;99.90;;;;;;5066090;28;20275;-81
2022/04/04 01:02:39;;;;;;;12.47;7.77;;;-0.50;99.90;;;;;;5080082;28;20170;-82
2022/04/04 01:05:06;;;;;;;19.50;10.00;;;-0.10;99.90;;;;;;5080091;28;20160;-82
2022/04/04 01:07:32;;;;;;;22.33;10.17;;;;;;;;;;5080323;28;20184;-81
2022/04/04 01:09:58;;;;;;;19.60;9.57;;;0.90;99.90;;;;;;5056992;28;20208;-81
2022/04/04 01:12:24;;;;;;;23.43;11.17;;;-0.70;99.90;;;;;;5058678;28;20180;-81
2022/04/04 01:14:49;;;;;;;19.23;9.30;;;0.30;99.90;;;;;;5043108;28;20189;-81
2022/04/04 01:17:17;;;;;;;16.60;9.37;;;-0.60;99.90;;;;;;5062246;28;20175;-82
2022/04/04 01:19:43;;;;;;;17.47;9.90;;;-0.60;99.90;;;;;;5079783;28;20171;-81
2022/04/04 01:22:11;;;;;;;17.93;9.13;;;1.00;99.90;;;;;;5062295;28;20160;-83
2022/04/04 01:24:38;;;;;;;19.33;10.00;;;0.00;99.90;;;;;;5042666;28;20551;-81
2022/04/04 01:27:05;;;;;;;20.90;11.67;;;-0.60;99.90;;;;;;5054233;28;20239;-81
2022/04/04 01:29:31;;;;;;;18.20;9.87;;;-0.60;99.90;;;;;;5054879;28;20233;-81
2022/04/04 01:31:58;;;;;;;20.23;10.87;;;0.90;99.90;;;;;;5036879;28;20192;-81
2022/04/04 01:34:24;;;;;;;28.40;12.17;;;0.80;99.90;;;;;;5054639;28;20183;-81
2022/04/04 01:36:50;;;;;;;22.80;10.90;;;1.10;99.90;;;;;;5055012;28;20209;-80
2022/04/04 01:39:17;;;;;;;16.80;9.00;;;;;;;;;;5054465;28;20180;-80
2022/04/04 01:41:43;;;;;;;18.90;9.97;;;-0.70;99.90;;;;;;5036623;28;20207;-80
2022/04/04 01:44:09;;;;;;;16.53;8.87;;;-0.20;99.90;;;;;;5036502;28;20639;-80
2022/04/04 01:46:35;;;;;;;19.63;8.27;;;-0.60;99.90;;;;;;5054568;28;20273;-82
2022/04/04 01:49:03;;;;;;;23.53;11.07;;;-0.70;99.90;;;;;;5036575;28;20660;-82
2022/04/04 01:51:30;;;;;;;20.77;10.77;;;0.40;99.90;;;;;;5036221;28;20266;-82
2022/04/04 01:53:56;;;;;;;17.60;9.30;;;0.30;99.90;;;;;;5036399;28;20217;-82
2022/04/04 01:56:22;;;;;;;17.57;8.20;;;0.90;99.90;;;;;;5054088;28;20200;-82
2022/04/04 01:58:48;;;;;;;15.93;8.20;;;0.00;99.90;;;;;;5059421;28;20738;-82
2022/04/04 02:01:19;;;;;;;19.63;9.57;;;-0.70;99.90;;;;;;5072512;28;20209;-80
2022/04/04 02:03:46;;;;;;;17.63;9.03;;;1.00;99.90;;;;;;5074456;28;20174;-80
2022/04/04 02:06:13;;;;;;;18.67;9.50;;;0.10;99.90;;;;;;5073893;28;20188;-80
2022/04/04 02:08:42;;;;;;;24.20;11.33;;;0.40;99.90;;;;;;5074134;28;20177;-82
2022/04/04 02:11:07;;;;;;;23.87;9.43;;;-0.70;99.90;;;;;;5073698;28;20285;-83
2022/04/04 02:13:33;;;;;;;24.63;11.40;;;-0.60;99.90;;;;;;5074087;28;20676;-80
2022/04/04 02:16:03;;;;;;;19.13;9.53;;;1.30;99.90;;;;;;5073719;28;20181;-80
2022/04/04 02:18:30;;;;;;;20.93;8.90;;;1.00;99.90;;;;;;5073614;28;20242;-82
2022/04/04 02:20:56;;;;;;;18.67;9.77;;;0.00;99.90;;;;;;5073828;28;20204;-81
2022/04/04 02:23:22;;;;;;;15.53;8.53;;;0.10;99.90;;;;;;5073571;28;20178;-82
2022/04/04 02:25:49;;;;;;;19.57;11.40;;;0.70;99.90;;;;;;5072543;28;20608;-81
2022/04/04 02:28:15;;;;;;;19.77;12.37;;;-0.70;99.90;;;;;;5072324;28;20203;-82
2022/04/04 02:30:42;;;;;;;21.97;12.73;;;-0.70;99.90;;;;;;5073456;28;20657;-82
2022/04/04 02:33:09;;;;;;;18.60;10.57;;;-0.70;99.90;;;;;;5073324;28;20172;-82
2022/04/04 02:35:35;;;;;;;16.63;8.83;;;-0.70;99.90;;;;;;5073083;28;20179;-82
2022/04/04 02:38:02;;;;;;;28.47;15.07;;;-0.70;99.90;;;;;;5072704;28;20182;-82
2022/04/04 02:40:28;;;;;;;19.93;8.50;;;0.50;99.90;;;;;;5071914;28;20200;-82
2022/04/04 02:42:54;;;;;;;12.60;7.73;;;-0.70;99.90;;;;;;5072174;28;20189;-82
2022/04/04 02:45:20;;;;;;;21.80;9.73;;;-0.70;99.90;;;;;;5071960;28;20261;-82
2022/04/04 02:47:46;;;;;;;18.17;9.37;;;-0.70;99.90;;;;;;5072535;28;20265;-82
2022/04/04 02:50:12;;;;;;;18.53;8.90;;;-0.40;99.90;;;;;;5072193;28;20191;-82
2022/04/04 02:52:39;;;;;;;19.17;9.03;;;1.00;99.90;;;;;;5072045;28;20177;-82
2022/04/04 02:57:51;;;;;;;17.30;8.57;;;-0.60;99.90;;;;;;5047482;28;20788;-83
2022/04/04 03:00:19;;;;;;;24.93;13.40;;;-0.70;99.90;;;;;;5033010;28;20203;-83
2022/04/04 03:02:46;;;;;;;12.60;8.00;;;0.80;99.90;;;;;;5033500;28;20187;-83
2022/04/04 03:05:13;;;;;;;16.43;8.33;;;1.10;99.90;;;;;;5042767;28;20191;-82
2022/04/04 03:07:39;;;;;;;17.30;7.93;;;0.70;99.90;;;;;;5041743;28;20181;-81
2022/04/04 03:10:05;;;;;;;15.67;7.47;;;-0.70;99.90;;;;;;5043638;28;20177;-83
2022/04/04 03:12:31;;;;;;;14.63;8.37;;;-0.70;99.90;;;;;;5025047;28;20190;-82
2022/04/04 03:14:57;;;;;;;17.00;7.80;;;-0.70;99.90;;;;;;5039620;28;20632;-82
2022/04/04 03:17:23;;;;;;;12.23;5.97;;;-0.40;99.90;;;;;;5015796;28;20243;-83
2022/04/04 03:19:49;;;;;;;19.90;8.10;;;-0.80;99.90;;;;;;5033202;28;20222;-82
2022/04/04 03:22:14;;;;;;;15.20;7.77;;;-0.10;99.90;;;;;;5015609;28;20699;-82
2022/04/04 03:24:40;;;;;;;17.20;7.70;;;-0.70;99.90;;;;;;5032868;28;20188;-82
2022/04/04 03:27:06;;;;;;;13.20;7.17;;;-0.80;99.90;;;;;;5033080;28;20613;-82
2022/04/04 03:29:32;;;;;;;18.23;7.93;;;-0.70;99.90;;;;;;5015165;28;20615;-82
2022/04/04 03:31:58;;;;;;;17.57;7.30;;;0.50;99.90;;;;;;5033322;28;20187;-81
2022/04/04 03:34:25;;;;;;;15.33;7.27;;;-0.80;99.90;;;;;;5015300;28;20238;-82
2022/04/04 03:36:51;;;;;;;11.33;6.30;;;-0.70;99.90;;;;;;5033046;28;20291;-82
2022/04/04 03:39:17;;;;;;;13.10;7.17;;;-0.70;99.90;;;;;;5015314;28;20645;-81
2022/04/04 03:41:45;;;;;;;19.20;7.30;;;-0.70;99.90;;;;;;5015162;28;20215;-82
2022/04/04 03:44:11;;;;;;;13.60;7.80;;;1.30;99.90;;;;;;5032921;28;20682;-81
2022/04/04 03:46:38;;;;;;;19.10;7.60;;;0.10;99.90;;;;;;5032322;28;20250;-82
2022/04/04 03:49:04;;;;;;;14.23;7.27;;;-0.70;99.90;;;;;;5000719;28;20271;-82
2022/04/04 03:51:30;;;;;;;15.57;6.73;;;-0.40;99.90;;;;;;5002494;28;20202;-83
2022/04/04 03:53:56;;;;;;;12.47;7.20;;;0.20;99.90;;;;;;5018916;28;20188;-81
2022/04/04 03:56:22;;;;;;;14.40;7.73;;;-0.30;99.90;;;;;;5002285;28;20192;-81
2022/04/04 03:58:49;;;;;;;18.00;7.67;;;0.50;99.90;;;;;;5041892;28;20232;-81
2022/04/04 04:01:15;;;;;;;17.20;7.30;;;0.60;99.90;;;;;;5056572;28;20349;-82
2022/04/04 04:03:40;;;;;;;13.30;7.17;;;0.50;99.90;;;;;;5055024;28;20270;-82
2022/04/04 04:06:12;;;;;;;17.77;8.23;;;-0.60;99.90;;;;;;5056470;28;20675;-82
2022/04/04 04:08:43;;;;;;;16.53;8.20;;;0.90;99.90;;;;;;5055011;28;20200;-82
2022/04/04 04:11:10;;;;;;;10.47;7.20;;;-0.70;99.90;;;;;;5056438;28;20170;-82
2022/04/04 04:13:37;;;;;;;10.97;6.47;;;-0.60;99.90;;;;;;5054458;28;20246;-82
2022/04/04 04:16:04;;;;;;;14.87;8.27;;;0.20;99.90;;;;;;5056321;28;20256;-82
2022/04/04 04:18:29;;;;;;;11.87;6.80;;;-0.60;99.90;;;;;;5054821;28;20179;-82
2022/04/04 04:20:56;;;;;;;14.87;7.60;;;1.00;99.90;;;;;;5055873;28;20296;-82
2022/04/04 04:23:22;;;;;;;52.07;21.13;;;-0.40;99.90;;;;;;5054887;28;20275;-82
2022/04/04 04:25:48;;;;;;;17.10;7.47;;;-0.70;99.90;;;;;;5055793;28;20184;-81
2022/04/04 04:28:14;;;;;;;19.43;9.60;;;-0.60;99.90;;;;;;5054672;28;20260;-82
2022/04/04 04:30:41;;;;;;;14.77;8.30;;;0.60;99.90;;;;;;5055438;28;20734;-82
2022/04/04 04:33:07;;;;;;;16.50;8.07;;;;;;;;;;5055971;28;20208;-82
2022/04/04 04:35:33;;;;;;;18.90;8.70;;;-0.60;99.90;;;;;;5054318;28;20189;-83
2022/04/04 04:38:00;;;;;;;23.70;9.40;;;0.20;99.90;;;;;;5054580;28;20184;-83
2022/04/04 04:40:26;;;;;;;18.17;8.67;;;-0.20;99.90;;;;;;5073400;28;20203;-82
2022/04/04 04:42:52;;;;;;;21.73;9.43;;;-0.60;99.90;;;;;;5066872;28;20179;-83
2022/04/04 04:45:18;;;;;;;15.30;7.83;;;-0.60;99.90;;;;;;5062708;28;20182;-82
2022/04/04 04:47:44;;;;;;;40.97;17.80;;;-0.60;99.90;;;;;;5063435;28;20597;-82
2022/04/04 04:50:12;;;;;;;43.10;20.43;;;-0.70;99.90;;;;;;5065397;28;20232;-82
2022/04/04 04:52:38;;;;;;;17.13;7.20;;;0.10;99.90;;;;;;5063563;28;20179;-82
2022/04/04 04:55:04;;;;;;;19.33;9.77;;;-0.40;99.90;;;;;;5063575;28;20184;-82
2022/04/04 04:57:30;;;;;;;17.10;9.20;;;-0.70;99.90;;;;;;5058838;28;20185;-83
2022/04/04 04:59:56;;;;;;;21.40;9.63;;;-0.10;99.90;;;;;;5040453;28;20208;-83
2022/04/04 05:02:22;;;;;;;19.40;7.77;;;0.40;99.90;;;;;;5021296;28;20204;-83
2022/04/04 05:04:48;;;;;;;16.47;8.93;;;-0.10;99.90;;;;;;5028113;28;20195;-84
2022/04/04 05:07:15;;;;;;;13.80;7.80;;;-0.60;99.90;;;;;;5015658;28;20553;-83
2022/04/04 05:09:40;;;;;;;13.90;7.33;;;-0.70;99.90;;;;;;5046886;28;20206;-85
2022/04/04 05:12:07;;;;;;;18.20;8.77;;;-0.10;99.90;;;;;;5050138;28;20630;-83
2022/04/04 05:14:33;;;;;;;16.97;8.87;;;-0.60;99.90;;;;;;5050380;28;20245;-82
2022/04/04 05:16:59;;;;;;;14.27;8.13;;;-0.50;99.90;;;;;;5029354;28;20214;-82
2022/04/04 05:19:25;;;;;;;17.40;8.37;;;;;;;;;;5045790;28;20268;-83
2022/04/04 05:21:51;;;;;;;17.60;8.70;;;-0.50;99.90;;;;;;5027051;28;20308;-82
2022/04/04 05:24:17;;;;;;;21.53;9.43;;;-0.50;99.90;;;;;;5028826;28;20308;-83
2022/04/04 05:26:43;;;;;;;14.40;7.13;;;-0.40;99.90;;;;;;5045533;28;20191;-82
2022/04/04 05:29:09;;;;;;;22.63;9.83;;;1.00;99.90;;;;;;5045123;28;20648;-83
2022/04/04 05:31:35;;;;;;;19.87;10.27;;;-0.10;99.90;;;;;;5030167;28;20192;-83
2022/04/04 05:34:06;;;;;;;19.30;8.20;;;-0.10;99.90;;;;;;5048452;28;20188;-83
2022/04/04 05:36:33;;;;;;;17.47;9.30;;;-1.70;99.90;;;;;;5047472;28;20180;-85
2022/04/04 05:38:59;;;;;;;15.87;8.93;;;0.00;99.90;;;;;;5049632;28;20181;-83
2022/04/04 05:41:29;;;;;;;18.63;9.50;;;0.10;99.90;;;;;;5049654;28;20229;-82
2022/04/04 05:43:54;;;;;;;15.10;7.23;;;0.00;99.90;;;;;;5026716;28;20569;-81
2022/04/04 05:46:20;;;;;;;24.47;10.37;;;0.00;99.90;;;;;;5029853;28;20747;-82
2022/04/04 05:48:46;;;;;;;15.07;9.07;;;1.70;99.90;;;;;;5028346;28;20701;-81
2022/04/04 05:51:13;;;;;;;13.80;7.87;;;0.00;99.90;;;;;;5019023;28;20993;-81
2022/04/04 05:53:39;;;;;;;14.93;8.53;;;-0.10;99.90;;;;;;5029166;28;20186;-82
2022/04/04 05:56:05;;;;;;;22.57;10.50;;;-0.20;99.90;;;;;;5024670;28;20176;-83
2022/04/04 05:58:31;;;;;;;14.30;9.53;;;-0.20;99.90;;;;;;5042010;28;20222;-83
2022/04/04 06:00:58;;;;;;;18.70;10.47;;;-0.10;99.90;;;;;;5063415;28;20666;-85
2022/04/04 06:03:24;;;;;;;16.97;8.77;;;0.00;99.90;;;;;;5066770;28;20285;-83
2022/04/04 06:05:51;;;;;;;22.37;10.10;;;0.00;99.90;;;;;;5062842;28;20248;-82
2022/04/04 06:08:17;;;;;;;24.80;11.83;;;0.00;99.90;;;;;;5068320;28;20263;-82
2022/04/04 06:10:46;;;;;;;17.63;9.60;;;0.10;99.90;;;;;;5054201;28;20279;-81
2022/04/04 06:13:19;;;;;;;16.73;10.53;;;0.20;99.90;;;;;;5054949;28;20188;-83
2022/04/04 06:15:46;;;;;;;22.63;11.77;;;0.30;99.90;;;;;;5066014;28;20656;-81
2022/04/04 06:18:15;;;;;;;21.07;10.73;;;;;;;;;;5061983;28;20194;-82
2022/04/04 06:20:42;;;;;;;20.90;11.67;;;0.40;99.90;;;;;;5064793;28;20309;-83
2022/04/04 06:23:08;;;;;;;22.20;11.07;;;0.50;99.90;;;;;;5068259;28;20196;-84
2022/04/04 06:25:34;;;;;;;25.03;11.97;;;;;;;;;;5056934;28;20184;-81
2022/04/04 06:28:00;;;;;;;24.70;12.63;;;0.60;99.90;;;;;;5060942;28;20183;-81
2022/04/04 06:30:26;;;;;;;25.57;11.73;;;0.70;99.90;;;;;;5043963;28;20703;-83
2022/04/04 06:32:53;;;;;;;24.67;12.83;;;0.80;99.90;;;;;;5063970;28;20184;-82
2022/04/04 06:35:19;;;;;;;23.50;11.77;;;0.90;99.90;;;;;;5065923;28;20528;-81
2022/04/04 06:37:46;;;;;;;23.03;12.83;;;0.90;99.90;;;;;;5059969;28;20183;-83
2022/04/04 06:40:13;;;;;;;19.93;10.97;;;1.00;99.90;;;;;;5057051;28;20757;-83
2022/04/04 06:42:41;;;;;;;26.63;12.37;;;1.10;99.90;;;;;;5053256;28;20199;-81
2022/04/04 06:45:09;;;;;;;23.90;12.97;;;1.00;99.90;;;;;;5059902;28;20175;-81
2022/04/04 06:47:35;;;;;;;22.60;10.80;;;1.10;99.90;;;;;;5066645;28;20183;-81
2022/04/04 06:50:02;;;;;;;22.83;11.50;;;1.10;99.90;;;;;;5058146;28;20189;-83
2022/04/04 06:52:28;;;;;;;49.53;21.53;;;1.40;99.90;;;;;;5057895;28;20191;-83
2022/04/04 06:54:55;;;;;;;24.33;13.17;;;1.40;99.90;;;;;;5051608;28;20697;-84
2022/04/04 06:57:21;;;;;;;25.50;12.73;;;1.50;99.90;;;;;;5058708;28;20267;-83
2022/04/04 06:59:47;;;;;;;24.40;12.40;;;1.50;99.90;;;;;;5008759;28;20189;-81
2022/04/04 07:02:13;;;;;;;22.73;12.10;;;1.50;99.90;;;;;;5039317;28;20199;-82
2022/04/04 07:04:40;;;;;;;28.33;14.67;;;1.50;99.90;;;;;;5045143;28;20180;-86
2022/04/04 07:07:07;;;;;;;25.20;14.13;;;1.70;99.90;;;;;;5053233;28;20180;-82
2022/04/04 07:09:32;;;;;;;23.50;14.03;;;1.70;99.90;;;;;;5036595;28;20198;-83
2022/04/04 07:11:58;;;;;;;24.20;13.17;;;1.90;99.90;;;;;;5034036;28;20191;-82
2022/04/04 07:14:25;;;;;;;29.50;14.90;;;1.90;99.90;;;;;;5056371;28;20636;-82
2022/04/04 07:16:53;;;;;;;25.43;13.10;;;1.90;99.90;;;;;;5030395;28;20197;-82
2022/04/04 07:19:23;;;;;;;26.80;12.60;;;1.90;99.90;;;;;;5035575;28;20168;-83
2022/04/04 07:21:52;;;;;;;28.67;15.20;;;1.90;99.90;;;;;;5061508;28;20243;-85
2022/04/04 07:24:19;;;;;;;26.43;13.37;;;1.80;99.90;;;;;;5041316;28;20199;-85
2022/04/04 07:26:48;;;;;;;28.10;15.00;;;1.90;99.90;;;;;;5032807;28;20196;-84
2022/04/04 07:29:14;;;;;;;21.60;10.60;;;2.00;99.90;;;;;;5039293;28;20196;-81
2022/04/04 07:31:41;;;;;;;31.00;14.17;;;2.10;99.90;;;;;;5054493;28;20190;-82
2022/04/04 07:34:07;;;;;;;30.00;14.23;;;2.20;99.90;;;;;;5068534;28;20195;-87
2022/04/04 07:36:33;;;;;;;28.23;13.47;;;2.10;99.90;;;;;;5052838;28;20190;-84
2022/04/04 07:38:59;;;;;;;24.50;13.63;;;2.10;99.90;;;;;;5029899;28;20196;-84
2022/04/04 07:41:25;;;;;;;31.60;16.23;;;2.20;99.90;;;;;;5008773;28;20584;-83
2022/04/04 07:43:50;;;;;;;23.77;14.37;;;2.20;99.90;;;;;;5018332;28;20725;-83
2022/04/04 07:46:17;;;;;;;24.83;13.27;;;2.20;99.90;;;;;;5001987;28;20192;-83
2022/04/04 07:48:42;;;;;;;22.10;10.43;;;2.40;99.90;;;;;;5017525;28;20188;-85
2022/04/04 07:51:08;;;;;;;28.60;14.77;;;2.30;99.90;;;;;;5017954;28;20208;-84
2022/04/04 07:53:35;;;;;;;30.20;15.57;;;2.40;99.90;;;;;;5015803;28;20203;-83
2022/04/04 07:56:01;;;;;;;21.87;12.57;;;2.20;99.90;;;;;;5010040;28;20202;-82
2022/04/04 07:58:27;;;;;;;32.83;17.70;;;2.20;99.90;;;;;;5023322;28;21161;-83
2022/04/04 08:00:54;;;;;;;30.70;14.87;;;2.30;99.90;;;;;;5038845;28;20207;-84
2022/04/04 08:03:21;;;;;;;27.53;13.13;;;2.50;99.90;;;;;;5050661;28;20218;-82
2022/04/04 08:05:47;;;;;;;31.43;14.50;;;2.50;99.90;;;;;;5049077;28;21373;-86
2022/04/04 08:08:13;;;;;;;27.27;15.17;;;2.40;99.90;;;;;;5042799;28;20239;-85
2022/04/04 08:10:39;;;;;;;34.73;17.40;;;2.50;99.90;;;;;;5046966;28;20275;-84
2022/04/04 08:13:05;;;;;;;30.93;15.73;;;2.60;99.90;;;;;;5059302;28;20541;-83
2022/04/04 08:15:31;;;;;;;37.40;16.33;;;2.60;99.90;;;;;;5063020;28;20233;-83
2022/04/04 08:17:57;;;;;;;25.27;14.40;;;2.50;99.90;;;;;;5059258;28;20187;-82
2022/04/04 08:20:23;;;;;;;29.47;16.17;;;2.50;99.90;;;;;;5055467;28;20213;-81
2022/04/04 08:22:49;;;;;;;25.90;15.57;;;2.70;99.90;;;;;;5054167;28;20275;-82
2022/04/04 08:25:16;;;;;;;29.57;16.53;;;3.00;99.90;;;;;;5036546;28;20188;-81
2022/04/04 08:27:43;;;;;;;25.60;16.17;;;3.00;99.90;;;;;;5069309;28;20183;-81
2022/04/04 08:30:11;;;;;;;29.37;17.27;;;3.10;99.90;;;;;;5070301;28;20629;-81
2022/04/04 08:32:37;;;;;;;25.93;15.27;;;3.20;99.90;;;;;;5054617;28;20192;-81
2022/04/04 08:35:08;;;;;;;23.23;14.00;;;3.40;99.90;;;;;;5072414;28;20682;-81
2022/04/04 08:37:35;;;;;;;28.00;16.47;;;3.50;99.90;;;;;;5076144;28;20179;-81
2022/04/04 08:40:02;;;;;;;27.53;14.40;;;3.30;99.90;;;;;;5075431;28;20222;-81
2022/04/04 08:42:29;;;;;;;31.23;15.83;;;3.10;99.90;;;;;;5074894;28;20191;-81
2022/04/04 08:45:00;;;;;;;23.40;13.27;;;3.10;99.90;;;;;;5075740;28;20240;-82
2022/04/04 08:47:29;;;;;;;24.80;13.73;;;3.20;99.90;;;;;;5074658;28;20168;-82
2022/04/04 08:49:55;;;;;;;25.30;14.13;;;;;;;;;;5076972;28;20190;-82
2022/04/04 08:52:22;;;;;;;25.17;15.17;;;3.60;99.90;;;;;;5086217;28;20194;-80
2022/04/04 08:54:48;;;;;;;22.10;12.80;;;3.60;99.90;;;;;;5096435;28;20183;-81
2022/04/04 08:57:14;;;;;;;25.47;13.00;;;;;;;;;;5085038;28;20625;-80
2022/04/04 08:59:40;;;;;;;18.33;10.33;;;3.80;99.90;;;;;;5040188;28;20217;-82
2022/04/04 09:02:06;;;;;;;23.67;14.07;;;3.60;99.90;;;;;;5020905;28;20273;-82
2022/04/04 09:04:33;;;;;;;22.07;13.33;;;3.50;99.90;;;;;;5055295;28;20187;-82
2022/04/04 09:07:04;;;;;;;21.73;11.40;;;3.50;99.90;;;;;;5037799;28;20187;-82
2022/04/04 09:09:40;;;;;;;19.97;11.47;;;3.40;99.90;;;;;;5037647;28;20201;-82
2022/04/04 09:12:09;;;;;;;27.20;12.87;;;3.20;99.90;;;;;;5055176;28;20174;-82
2022/04/04 09:14:44;;;;;;;26.30;15.03;;;3.00;99.90;;;;;;5037597;28;20183;-82
2022/04/04 09:17:11;;;;;;;28.23;14.47;;;3.00;99.90;;;;;;5054503;28;20255;-81
2022/04/04 09:19:38;;;;;;;21.37;13.77;;;3.00;99.90;;;;;;5021192;28;20181;-82
2022/04/04 09:22:15;;;;;;;26.27;15.10;;;3.10;99.90;;;;;;5032890;28;20251;-81
2022/04/04 09:25:02;;;;;;;25.00;13.70;;;3.00;99.90;;;;;;5045631;28;20186;-82
2022/04/04 09:27:30;;;;;;;23.10;11.90;;;3.30;99.90;;;;;;5035263;28;20189;-83
2022/04/04 09:30:00;;;;;;;23.47;14.07;;;3.30;99.90;;;;;;5017412;28;20686;-81
2022/04/04 09:32:42;;;;;;;22.63;12.17;;;3.30;99.90;;;;;;5017324;28;20177;-82
2022/04/04 09:35:12;;;;;;;29.37;15.50;;;3.10;99.90;;;;;;5016620;28;20182;-82
2022/04/04 09:37:49;;;;;;;25.70;13.43;;;3.20;99.90;;;;;;5017306;28;20181;-81
2022/04/04 09:40:17;;;;;;;17.93;10.97;;;3.20;99.90;;;;;;5016862;28;20216;-82
2022/04/04 09:42:50;;;;;;;23.50;13.67;;;3.10;99.90;;;;;;5016902;28;20625;-82
2022/04/04 09:45:16;;;;;;;23.13;13.97;;;2.80;99.90;;;;;;5034574;28;20165;-81
2022/04/04 09:47:45;;;;;;;16.47;10.70;;;2.90;99.90;;;;;;5034491;28;20214;-81
2022/04/04 09:50:46;;;;;;;21.20;13.37;;;3.00;99.90;;;;;;5022075;28;20179;-83
2022/04/04 09:53:24;;;;;;;23.60;15.30;;;3.00;99.90;;;;;;5000415;28;20304;-82
2022/04/04 09:55:55;;;;;;;23.87;14.97;;;2.80;99.90;;;;;;5016733;28;20177;-81
2022/04/04 09:58:28;;;;;;;24.10;14.83;;;2.40;99.90;;;;;;5015890;28;20243;-83
2022/04/04 10:00:55;;;;;;;22.03;14.10;;;2.00;99.90;;;;;;5054247;28;20286;-82
2022/04/04 10:03:22;;;;;;;25.60;14.57;;;1.90;99.90;;;;;;5054223;28;20235;-82
2022/04/04 10:06:04;;;;;;;24.50;15.20;;;1.80;99.90;;;;;;5054427;28;20187;-83
2022/04/04 10:08:32;;;;;;;26.07;14.47;;;1.90;99.90;;;;;;5068621;28;20535;-83
2022/04/04 10:10:58;;;;;;;24.00;15.43;;;1.80;99.90;;;;;;5046681;28;20179;-83
2022/04/04 10:13:25;;;;;;;23.67;15.67;;;1.80;99.90;;;;;;5062546;28;20509;-83
2022/04/04 10:15:53;;;;;;;28.80;16.70;;;1.80;99.90;;;;;;5064463;28;20191;-83
2022/04/04 10:18:20;;;;;;;25.00;16.53;;;1.80;99.90;;;;;;5053658;28;20185;-83
2022/04/04 10:20:53;;;;;;;17.60;11.70;;;1.90;99.90;;;;;;5053464;28;20200;-82
2022/04/04 10:23:21;;;;;;;27.00;16.73;;;2.00;99.90;;;;;;5038077;28;20184;-82
2022/04/04 10:25:51;;;;;;;30.60;15.13;;;1.90;99.90;;;;;;5035895;28;20187;-81
2022/04/04 10:28:31;;;;;;;28.17;17.50;;;2.00;99.90;;;;;;5058289;28;20227;-82
2022/04/04 10:31:10;;;;;;;28.47;15.73;;;1.90;99.90;;;;;;5062868;28;20273;-81
2022/04/04 10:33:36;;;;;;;27.77;15.00;;;;;;;;;;5060044;28;20260;-81
2022/04/04 10:36:02;;;;;;;30.87;17.60;;;2.00;99.90;;;;;;5062060;28;20181;-81
2022/04/04 10:38:46;;;;;;;26.03;17.90;;;2.10;99.90;;;;;;5061510;28;20229;-82
2022/04/04 10:41:18;;;;;;;26.60;16.30;;;2.20;99.90;;;;;;5060071;28;20227;-81
2022/04/04 10:43:47;;;;;;;28.47;17.47;;;2.40;99.90;;;;;;5062384;28;20177;-82
2022/04/04 10:46:24;;;;;;;26.70;16.40;;;2.30;99.90;;;;;;5060216;28;20176;-82
2022/04/04 10:49:03;;;;;;;26.90;16.27;;;2.50;99.90;;;;;;5062187;28;20177;-81
2022/04/04 10:51:34;;;;;;;26.63;16.20;;;2.60;99.90;;;;;;5062223;28;20187;-82
2022/04/04 10:54:07;;;;;;;17.73;11.63;;;2.70;99.90;;;;;;5062976;28;20250;-81
2022/04/04 10:56:36;;;;;;;22.70;15.23;;;2.90;99.90;;;;;;5062910;28;20934;-83
2022/04/04 10:59:23;;;;;;;22.43;14.63;;;3.00;99.90;;;;;;5059483;28;20234;-82
2022/04/04 11:01:55;;;;;;;26.83;15.13;;;3.10;99.90;;;;;;5063133;28;20196;-81
2022/04/04 11:07:39;;;;;;;25.80;14.93;;;3.20;99.90;;;;;;5060702;28;20183;-81
2022/04/04 11:10:09;;;;;;;27.57;15.97;;;3.30;99.90;;;;;;5056911;28;20176;-82
2022/04/04 11:12:54;;;;;;;25.83;15.80;;;3.40;99.90;;;;;;5064667;28;20161;-81
2022/04/04 11:15:42;;;;;;;29.50;16.37;;;4.00;99.90;;;;;;5062062;28;20171;-82
2022/04/04 11:18:09;;;;;;;24.97;15.30;;;4.20;99.90;;;;;;5061730;28;20179;-81
2022/04/04 11:20:36;;;;;;;20.53;11.03;;;4.10;99.90;;;;;;5060480;28;20318;-81
2022/04/04 11:23:10;;;;;;;22.47;15.27;;;4.10;99.90;;;;;;5060103;28;20248;-81
2022/04/04 11:25:48;;;;;;;22.90;14.33;;;4.20;99.90;;;;;;5044148;28;20513;-81
2022/04/04 11:28:17;;;;;;;18.80;12.60;;;4.60;99.90;;;;;;5061395;28;20167;-83
2022/04/04 11:30:43;;;;;;;19.67;11.47;;;4.70;99.90;;;;;;5060981;28;20179;-81
2022/04/04 11:33:17;;;;;;;20.73;14.30;;;4.30;99.90;;;;;;5062847;28;20175;-82
2022/04/04 11:35:44;;;;;;;22.97;14.87;;;4.30;99.90;;;;;;5045417;28;20175;-82
2022/04/04 11:38:12;;;;;;;16.57;11.47;;;4.50;99.90;;;;;;5060973;28;20753;-82
2022/04/04 11:40:44;;;;;;;17.53;12.73;;;4.50;99.90;;;;;;5045255;28;20260;-82
2022/04/04 11:43:14;;;;;;;22.67;14.30;;;4.50;99.90;;;;;;5059621;28;20175;-82
2022/04/04 11:45:42;;;;;;;23.47;13.67;;;4.00;99.90;;;;;;5060204;28;20739;-81
2022/04/04 11:48:17;;;;;;;23.20;14.60;;;4.10;99.90;;;;;;5061477;28;20178;-81
2022/04/04 11:50:45;;;;;;;17.07;10.87;;;4.00;99.90;;;;;;5058521;28;20170;-82
2022/04/04 11:53:17;;;;;;;23.67;14.20;;;4.30;99.90;;;;;;5061373;28;20268;-82
2022/04/04 11:55:46;;;;;;;19.73;13.00;;;4.40;99.90;;;;;;5062081;28;20229;-82
2022/04/04 11:58:20;;;;;;;24.63;13.83;;;4.60;99.90;;;;;;5052583;28;20227;-81
2022/04/04 12:00:54;;;;;;;20.17;13.50;;;4.80;99.90;;;;;;5023751;28;20207;-82
2022/04/04 12:03:23;;;;;;;18.00;11.40;;;4.70;99.90;;;;;;5041460;28;20183;-83
2022/04/04 12:05:50;;;;;;;22.73;14.53;;;4.70;99.90;;;;;;5042552;28;20262;-82
2022/04/04 12:08:18;;;;;;;25.27;13.03;;;4.80;99.90;;;;;;5023518;28;20710;-82
2022/04/04 12:10:46;;;;;;;21.33;11.43;;;5.00;99.90;;;;;;5045563;28;20200;-82
2022/04/04 12:13:20;;;;;;;22.03;12.80;;;5.00;99.90;;;;;;5026728;28;20184;-81
2022/04/04 12:15:47;;;;;;;27.13;13.43;;;5.10;99.90;;;;;;5044325;28;20176;-81
2022/04/04 12:18:22;;;;;;;14.87;9.23;;;5.30;99.90;;;;;;5044569;28;20659;-82
2022/04/04 12:20:49;;;;;;;19.87;12.47;;;5.40;99.90;;;;;;5041173;28;20188;-82
2022/04/04 12:26:09;;;;;;;21.07;13.03;;;5.30;99.90;;;;;;5046029;28;20191;-80
2022/04/04 12:28:51;;;;;;;25.10;13.37;;;5.20;99.90;;;;;;5047394;28;20180;-80
2022/04/04 12:31:26;;;;;;;22.17;12.37;;;5.40;99.90;;;;;;5034460;28;20528;-80
2022/04/04 12:34:12;;;;;;;19.07;11.73;;;5.90;99.90;;;;;;5045441;28;20238;-80
2022/04/04 12:36:43;;;;;;;26.77;11.63;;;6.30;99.90;;;;;;5039629;28;20192;-81
2022/04/04 12:39:16;;;;;;;20.33;12.63;;;6.00;99.90;;;;;;5002915;28;20193;-81
2022/04/04 12:41:45;;;;;;;20.07;12.50;;;6.20;99.90;;;;;;5033934;28;20645;-81
2022/04/04 12:44:12;;;;;;;18.20;12.10;;;6.50;99.90;;;;;;5016574;28;20191;-80
2022/04/04 12:46:38;;;;;;;17.43;10.97;;;6.20;99.90;;;;;;5034131;28;20180;-80
2022/04/04 12:49:21;;;;;;;18.13;10.40;;;6.50;99.90;;;;;;5018217;28;20183;-80
2022/04/04 12:51:59;;;;;;;15.40;10.30;;;6.40;99.90;;;;;;5034895;28;20272;-80
2022/04/04 12:54:33;;;;;;;17.70;10.50;;;5.90;99.90;;;;;;5035286;28;20161;-80